Time;durP1;ratioP1;P1;durP2;ratioP2;P2;SDS_P1;SDS_P2;PMS_P1;PMS_P2;Temp;Humidity;BMP_temperature;BMP_pressure;BME280_temperature;BME280_humidity;BME280_pressure;Samples;Min_cycle;Max_cycle;Signal;HPM_P1;HPM_P2
2023/03/13 00:02:07;;;;;;;15.55;3.00;;;;;;;;;;5028674;28;20046;-60
2023/03/13 00:04:32;;;;;;;16.52;3.85;;;;;;;;;;5028286;28;20109;-60
2023/03/13 00:06:58;;;;;;;20.70;6.07;;;;;;;;;;5030393;28;20038;-60
2023/03/13 00:09:23;;;;;;;14.27;3.85;;;;;;;;;;5022458;28;20584;-60
2023/03/13 00:11:48;;;;;;;13.32;3.15;;;;;;;;;;5029344;28;20030;-60
2023/03/13 00:14:14;;;;;;;12.90;3.17;;;;;;;;;;5028095;28;20025;-59
2023/03/13 00:16:39;;;;;;;14.55;3.10;;;;;;;;;;5029730;28;20474;-60
2023/03/13 00:19:06;;;;;;;11.00;2.78;;;;;;;;;;5033180;28;20386;-60
2023/03/13 00:21:33;;;;;;;13.45;3.05;;;;;;;;;;5032904;28;20038;-61
2023/03/13 00:23:59;;;;;;;14.85;3.35;;;;;;;;;;5015482;28;20045;-61
2023/03/13 00:26:26;;;;;;;16.13;3.20;;;;;;;;;;5031535;28;20628;-61
2023/03/13 00:28:52;;;;;;;9.55;2.63;;;;;;;;;;5032740;28;20069;-61
2023/03/13 00:31:24;;;;;;;19.50;3.35;;;;;;;;;;5031677;28;20106;-62
2023/03/13 00:33:52;;;;;;;15.63;2.90;;;;;;;;;;5032033;28;20077;-61
2023/03/13 00:36:23;;;;;;;13.70;3.15;;;;;;;;;;5030256;28;20098;-60
2023/03/13 00:38:48;;;;;;;;;;;;;;;;;;5032182;28;20029;-58
2023/03/13 00:41:19;;;;;;;17.30;3.22;;;;;;;;;;5032586;28;20271;-60
2023/03/13 00:43:46;;;;;;;11.20;2.65;;;;;;;;;;5032206;28;20390;-59
2023/03/13 00:46:13;;;;;;;15.38;2.80;;;;;;;;;;5032437;28;20053;-60
2023/03/13 00:48:39;;;;;;;16.77;3.00;;;;;;;;;;5032257;28;20045;-60
2023/03/13 00:51:06;;;;;;;22.73;3.60;;;;;;;;;;5032076;28;20034;-61
2023/03/13 00:53:32;;;;;;;14.05;2.92;;;;;;;;;;5031522;28;20260;-62
2023/03/13 00:56:00;;;;;;;13.70;3.00;;;;;;;;;;5014052;28;20057;-61
2023/03/13 00:58:27;;;;;;;14.23;3.35;;;;;;;;;;5030392;28;20500;-60
2023/03/13 01:00:54;;;;;;;21.02;3.70;;;;;;;;;;5029964;28;20360;-60
2023/03/13 01:03:21;;;;;;;21.55;3.58;;;;;;;;;;5029303;28;20064;-60
2023/03/13 01:05:56;;;;;;;15.10;3.13;;;;;;;;;;5030478;28;20119;-60
2023/03/13 01:08:21;;;;;;;16.05;3.58;;;;;;;;;;5032881;28;20033;-60
2023/03/13 01:10:46;;;;;;;19.98;3.53;;;;;;;;;;5005494;28;20041;-60
2023/03/13 01:13:12;;;;;;;21.52;4.00;;;;;;;;;;5031818;28;20112;-61
2023/03/13 01:15:37;;;;;;;19.95;3.28;;;;;;;;;;5030354;28;20378;-60
2023/03/13 01:18:03;;;;;;;17.75;3.83;;;;;;;;;;5030903;28;20029;-60
2023/03/13 01:20:29;;;;;;;13.75;3.35;;;;;;;;;;5010493;28;20025;-60
2023/03/13 01:22:55;;;;;;;17.52;3.47;;;;;;;;;;5021382;28;20041;-60
2023/03/13 01:25:20;;;;;;;17.08;3.35;;;;;;;;;;5032869;28;20107;-60
2023/03/13 01:27:46;;;;;;;19.02;3.17;;;;;;;;;;5034022;28;20036;-60
2023/03/13 01:30:11;;;;;;;17.27;3.38;;;;;;;;;;5033704;28;20072;-60
2023/03/13 01:32:37;;;;;;;15.93;3.65;;;;;;;;;;5034056;28;20038;-60
2023/03/13 01:35:02;;;;;;;16.17;3.55;;;;;;;;;;5032811;28;20034;-60
2023/03/13 01:37:28;;;;;;;14.95;3.08;;;;;;;;;;5030338;28;20069;-61
2023/03/13 01:39:53;;;;;;;21.80;3.60;;;;;;;;;;5027994;28;20120;-60
2023/03/13 01:42:18;;;;;;;21.20;3.28;;;;;;;;;;5028317;28;20413;-60
2023/03/13 01:44:53;;;;;;;18.70;3.85;;;;;;;;;;5028832;28;20038;-60
2023/03/13 01:47:18;;;;;;;19.75;3.55;;;;;;;;;;5019341;28;20041;-60
2023/03/13 01:49:44;;;;;;;19.23;3.33;;;;;;;;;;5030889;28;20030;-60
2023/03/13 01:52:30;;;;;;;14.52;3.10;;;;;;;;;;5031514;28;20114;-60
2023/03/13 01:55:03;;;;;;;18.55;3.67;;;;;;;;;;5032741;28;20046;-60
2023/03/13 01:57:34;;;;;;;21.00;4.10;;;;;;;;;;5029413;28;20699;-60
2023/03/13 02:00:11;;;;;;;15.57;2.90;;;;;;;;;;5030250;28;20038;-61
2023/03/13 02:02:43;;;;;;;19.08;3.47;;;;;;;;;;5027894;28;20115;-60
2023/03/13 02:05:09;;;;;;;19.05;3.80;;;;;;;;;;5029763;28;20044;-60
2023/03/13 02:07:46;;;;;;;19.60;4.00;;;;;;;;;;5029405;28;20029;-60
2023/03/13 02:10:14;;;;;;;15.30;3.42;;;;;;;;;;5031604;28;20041;-60
2023/03/13 02:12:40;;;;;;;19.10;4.30;;;;;;;;;;5029195;28;20037;-59
2023/03/13 02:15:10;;;;;;;15.70;3.45;;;;;;;;;;5019339;28;20509;-59
2023/03/13 02:17:38;;;;;;;22.25;4.28;;;;;;;;;;5027913;28;20033;-60
2023/03/13 02:20:04;;;;;;;18.75;3.38;;;;;;;;;;5024708;28;20036;-61
2023/03/13 02:22:51;;;;;;;17.33;4.07;;;;;;;;;;5030684;28;20065;-59
2023/03/13 02:25:22;;;;;;;22.27;4.28;;;;;;;;;;5029824;28;20438;-61
2023/03/13 02:27:51;;;;;;;22.20;4.78;;;;;;;;;;5031184;28;20433;-59
2023/03/13 02:30:17;;;;;;;16.65;3.25;;;;;;;;;;5029861;28;20048;-61
2023/03/13 02:32:44;;;;;;;21.33;4.93;;;;;;;;;;5029740;28;20033;-61
2023/03/13 02:35:13;;;;;;;19.90;3.67;;;;;;;;;;5026495;28;20390;-60
2023/03/13 02:37:41;;;;;;;12.07;2.85;;;;;;;;;;5024872;28;20148;-61
2023/03/13 02:40:11;;;;;;;16.48;3.78;;;;;;;;;;5014508;28;20378;-60
2023/03/13 02:42:42;;;;;;;19.52;4.10;;;;;;;;;;5011778;28;20030;-61
2023/03/13 02:45:08;;;;;;;22.65;4.15;;;;;;;;;;5012235;28;20428;-61
2023/03/13 02:47:33;;;;;;;18.90;3.85;;;;;;;;;;5013013;28;20046;-62
2023/03/13 02:49:59;;;;;;;14.80;3.33;;;;;;;;;;5024983;28;20033;-61
2023/03/13 02:52:31;;;;;;;18.52;4.18;;;;;;;;;;5028489;28;20033;-59
2023/03/13 02:55:03;;;;;;;18.38;4.35;;;;;;;;;;5027023;28;20454;-60
2023/03/13 02:57:30;;;;;;;22.30;4.20;;;;;;;;;;5028915;28;20486;-61
2023/03/13 02:59:56;;;;;;;19.77;4.10;;;;;;;;;;5027725;28;20033;-59
2023/03/13 03:02:21;;;;;;;18.27;3.75;;;;;;;;;;5024932;28;20044;-59
2023/03/13 03:04:47;;;;;;;13.82;3.97;;;;;;;;;;5026669;28;20044;-60
2023/03/13 03:07:12;;;;;;;15.07;4.03;;;;;;;;;;5019256;28;20065;-63
2023/03/13 03:09:38;;;;;;;18.65;4.45;;;;;;;;;;5029183;28;20044;-61
2023/03/13 03:12:03;;;;;;;16.10;3.50;;;;;;;;;;5028651;28;20037;-61
2023/03/13 03:14:29;;;;;;;19.00;3.90;;;;;;;;;;5028516;28;20566;-61
2023/03/13 03:16:54;;;;;;;20.83;4.20;;;;;;;;;;5029017;28;20033;-61
2023/03/13 03:19:19;;;;;;;13.98;3.83;;;;;;;;;;5028102;28;20071;-60
2023/03/13 03:21:45;;;;;;;23.27;4.07;;;;;;;;;;5029336;28;20029;-60
2023/03/13 03:24:10;;;;;;;18.50;3.55;;;;;;;;;;5029016;28;20060;-61
2023/03/13 03:26:36;;;;;;;14.38;3.60;;;;;;;;;;5028642;28;20688;-61
2023/03/13 03:29:01;;;;;;;19.90;3.35;;;;;;;;;;5027844;28;20116;-62
2023/03/13 03:31:27;;;;;;;18.65;3.67;;;;;;;;;;5027916;28;20033;-60
2023/03/13 03:33:52;;;;;;;13.60;3.80;;;;;;;;;;5028772;28;20037;-61
2023/03/13 03:36:20;;;;;;;14.40;4.00;;;;;;;;;;5027149;28;20029;-61
2023/03/13 03:38:46;;;;;;;11.52;3.55;;;;;;;;;;5027673;28;20500;-61
2023/03/13 03:41:13;;;;;;;16.50;3.60;;;;;;;;;;5028623;28;20045;-60
2023/03/13 03:43:39;;;;;;;16.42;3.17;;;;;;;;;;5021433;28;20029;-61
2023/03/13 03:46:05;;;;;;;13.30;3.78;;;;;;;;;;4977313;28;1093420;-60
2023/03/13 03:48:31;;;;;;;15.98;4.18;;;;;;;;;;5028709;28;20053;-60
2023/03/13 03:50:56;;;;;;;10.02;4.35;;;;;;;;;;5028505;28;20029;-60
2023/03/13 03:53:22;;;;;;;12.75;3.17;;;;;;;;;;5027966;28;20068;-60
2023/03/13 03:55:48;;;;;;;7.47;2.33;;;;;;;;;;5028770;28;20366;-62
2023/03/13 03:58:13;;;;;;;11.38;3.50;;;;;;;;;;5028469;28;20130;-60
2023/03/13 04:00:41;;;;;;;14.57;3.42;;;;;;;;;;5028807;28;20025;-60
2023/03/13 04:03:07;;;;;;;9.27;3.05;;;;;;;;;;5029485;28;20031;-60
2023/03/13 04:05:32;;;;;;;7.88;2.90;;;;;;;;;;5028234;28;20835;-62
2023/03/13 04:07:57;;;;;;;9.40;2.90;;;;;;;;;;5029738;28;20040;-62
2023/03/13 04:10:23;;;;;;;10.82;3.15;;;;;;;;;;5028237;28;20034;-61
2023/03/13 04:12:48;;;;;;;8.23;3.17;;;;;;;;;;5028911;28;20116;-61
2023/03/13 04:15:13;;;;;;;10.52;3.80;;;;;;;;;;5027125;28;20064;-61
2023/03/13 04:17:39;;;;;;;6.50;2.78;;;;;;;;;;5029093;28;20021;-61
2023/03/13 04:20:06;;;;;;;10.02;3.40;;;;;;;;;;5029895;28;20107;-61
2023/03/13 04:22:31;;;;;;;8.98;3.15;;;;;;;;;;5028718;28;20488;-60
2023/03/13 04:24:57;;;;;;;9.60;3.55;;;;;;;;;;5028160;28;20037;-60
2023/03/13 04:27:22;;;;;;;7.40;3.05;;;;;;;;;;5027795;28;20045;-60
2023/03/13 04:29:48;;;;;;;8.85;3.30;;;;;;;;;;5027182;28;20126;-61
2023/03/13 04:32:13;;;;;;;9.48;3.70;;;;;;;;;;5030385;28;20169;-61
2023/03/13 04:34:38;;;;;;;10.52;4.53;;;;;;;;;;5028303;28;20410;-60
2023/03/13 04:37:04;;;;;;;11.05;3.70;;;;;;;;;;5027189;28;20037;-61
2023/03/13 04:39:29;;;;;;;9.23;3.40;;;;;;;;;;5027948;28;20029;-60
2023/03/13 04:41:55;;;;;;;10.98;3.63;;;;;;;;;;5020207;28;20381;-61
2023/03/13 04:44:21;;;;;;;9.05;3.65;;;;;;;;;;5024463;28;20502;-60
2023/03/13 04:46:47;;;;;;;7.88;2.88;;;;;;;;;;5030773;28;20034;-60
2023/03/13 04:49:13;;;;;;;7.55;3.58;;;;;;;;;;5030395;28;20037;-61
2023/03/13 04:51:40;;;;;;;7.82;3.88;;;;;;;;;;5030376;28;20462;-62
2023/03/13 04:54:06;;;;;;;6.13;3.47;;;;;;;;;;5031182;28;20033;-62
2023/03/13 04:56:31;;;;;;;6.38;3.60;;;;;;;;;;5030169;28;20409;-61
2023/03/13 04:58:57;;;;;;;10.38;3.67;;;;;;;;;;5030774;28;20064;-61
2023/03/13 05:01:22;;;;;;;10.32;3.90;;;;;;;;;;5029753;28;20470;-61
2023/03/13 05:03:48;;;;;;;9.38;3.40;;;;;;;;;;5032775;28;20104;-61
2023/03/13 05:06:13;;;;;;;9.45;3.30;;;;;;;;;;5033679;28;20041;-61
2023/03/13 05:08:38;;;;;;;7.80;2.92;;;;;;;;;;5033821;28;20022;-61
2023/03/13 05:11:04;;;;;;;7.43;3.33;;;;;;;;;;5034446;28;20453;-61
2023/03/13 05:13:30;;;;;;;8.88;3.03;;;;;;;;;;5033466;28;20159;-60
2023/03/13 05:15:55;;;;;;;5.65;2.22;;;;;;;;;;5034454;28;20108;-62
2023/03/13 05:18:21;;;;;;;6.15;3.10;;;;;;;;;;5034562;28;20029;-61
2023/03/13 05:20:46;;;;;;;6.07;2.83;;;;;;;;;;5033701;28;20080;-61
2023/03/13 05:23:12;;;;;;;7.60;2.80;;;;;;;;;;5033120;28;20385;-62
2023/03/13 05:25:37;;;;;;;8.70;3.35;;;;;;;;;;5032808;28;20044;-61
2023/03/13 05:28:03;;;;;;;7.55;3.47;;;;;;;;;;5034460;28;20522;-61
2023/03/13 05:30:28;;;;;;;12.15;5.15;;;;;;;;;;5035847;28;20025;-61
2023/03/13 05:32:54;;;;;;;6.55;3.13;;;;;;;;;;5034221;28;20043;-60
2023/03/13 05:35:19;;;;;;;10.55;3.95;;;;;;;;;;5033743;28;20386;-61
2023/03/13 05:37:45;;;;;;;12.90;4.93;;;;;;;;;;5033154;28;20029;-62
2023/03/13 05:40:11;;;;;;;8.65;3.28;;;;;;;;;;5033392;28;20088;-61
2023/03/13 05:42:37;;;;;;;22.90;7.97;;;;;;;;;;5033099;28;20022;-62
2023/03/13 05:45:03;;;;;;;11.93;5.38;;;;;;;;;;5033908;28;20060;-62
2023/03/13 05:47:28;;;;;;;8.73;4.03;;;;;;;;;;5032221;28;20474;-62
2023/03/13 05:49:53;;;;;;;10.07;4.25;;;;;;;;;;5033335;28;20033;-61
2023/03/13 05:52:19;;;;;;;5.63;3.10;;;;;;;;;;5015639;28;20076;-61
2023/03/13 05:54:44;;;;;;;8.35;3.95;;;;;;;;;;5032277;28;20683;-62
2023/03/13 05:57:09;;;;;;;4.82;2.38;;;;;;;;;;5032984;28;20036;-61
2023/03/13 05:59:35;;;;;;;7.75;3.35;;;;;;;;;;5032149;28;20061;-61
2023/03/13 06:02:00;;;;;;;6.72;3.22;;;;;;;;;;5033393;28;20029;-61
2023/03/13 06:04:25;;;;;;;6.80;2.97;;;;;;;;;;5033863;28;20605;-61
2023/03/13 06:06:51;;;;;;;4.25;2.70;;;;;;;;;;5032622;28;20034;-62
2023/03/13 06:09:16;;;;;;;8.38;3.90;;;;;;;;;;5032935;28;20060;-61
2023/03/13 06:11:42;;;;;;;6.60;3.47;;;;;;;;;;5032425;28;20029;-61
2023/03/13 06:14:07;;;;;;;6.65;3.35;;;;;;;;;;5031172;28;20390;-61
2023/03/13 06:16:33;;;;;;;5.78;2.97;;;;;;;;;;5032068;28;20025;-62
2023/03/13 06:18:58;;;;;;;4.18;2.92;;;;;;;;;;5053191;28;20033;-61
2023/03/13 06:21:24;;;;;;;4.15;2.30;;;;;;;;;;5034919;28;20033;-64
2023/03/13 06:23:49;;;;;;;6.50;2.90;;;;;;;;;;5021942;28;20441;-65
2023/03/13 06:26:14;;;;;;;5.00;2.83;;;;;;;;;;5032640;28;20470;-66
2023/03/13 06:28:40;;;;;;;5.40;2.60;;;;;;;;;;5030999;28;20037;-63
2023/03/13 06:31:06;;;;;;;4.20;2.22;;;;;;;;;;5031157;28;20060;-65
2023/03/13 06:33:32;;;;;;;3.25;2.03;;;;;;;;;;5012081;28;20667;-66
2023/03/13 06:36:00;;;;;;;3.92;2.20;;;;;;;;;;5009819;28;20057;-66
2023/03/13 06:38:26;;;;;;;4.65;2.63;;;;;;;;;;5030920;28;20040;-67
2023/03/13 06:40:52;;;;;;;4.18;2.50;;;;;;;;;;5012430;28;20071;-68
2023/03/13 06:43:18;;;;;;;5.00;2.15;;;;;;;;;;5031742;28;20478;-66
2023/03/13 06:45:44;;;;;;;5.95;2.25;;;;;;;;;;5030716;28;20128;-69
2023/03/13 06:48:10;;;;;;;4.70;2.40;;;;;;;;;;5030524;28;20109;-68
2023/03/13 06:50:38;;;;;;;6.45;2.20;;;;;;;;;;5031419;28;20033;-69
2023/03/13 06:53:04;;;;;;;4.55;2.22;;;;;;;;;;5031468;28;20040;-64
2023/03/13 06:55:30;;;;;;;6.63;2.40;;;;;;;;;;5031617;28;20100;-63
2023/03/13 06:57:55;;;;;;;4.32;2.33;;;;;;;;;;5031002;28;20137;-62
2023/03/13 07:00:21;;;;;;;4.32;2.60;;;;;;;;;;5030538;28;20065;-63
2023/03/13 07:02:46;;;;;;;3.20;1.95;;;;;;;;;;5030190;28;20029;-64
2023/03/13 07:05:13;;;;;;;4.55;2.10;;;;;;;;;;5013703;28;20033;-62
2023/03/13 07:07:39;;;;;;;3.28;1.73;;;;;;;;;;5027513;28;20036;-65
2023/03/13 07:10:05;;;;;;;5.20;2.08;;;;;;;;;;5030815;28;20060;-64
2023/03/13 07:12:31;;;;;;;3.95;2.40;;;;;;;;;;5030701;28;20068;-62
2023/03/13 07:14:56;;;;;;;4.30;1.90;;;;;;;;;;5013129;28;20038;-64
2023/03/13 07:17:22;;;;;;;5.65;2.30;;;;;;;;;;5031634;28;20045;-63
2023/03/13 07:19:47;;;;;;;8.07;2.40;;;;;;;;;;5030038;28;20034;-64
2023/03/13 07:22:12;;;;;;;4.97;2.08;;;;;;;;;;5031033;28;20037;-65
2023/03/13 07:24:38;;;;;;;5.57;2.30;;;;;;;;;;5029292;28;20156;-63
2023/03/13 07:27:03;;;;;;;4.22;2.10;;;;;;;;;;5030834;28;20033;-64
2023/03/13 07:29:29;;;;;;;6.07;2.17;;;;;;;;;;5030530;28;20052;-65
2023/03/13 07:31:54;;;;;;;3.50;2.28;;;;;;;;;;5031041;28;20159;-64
2023/03/13 07:34:19;;;;;;;4.57;1.90;;;;;;;;;;5030878;28;20036;-66
2023/03/13 07:36:45;;;;;;;7.63;1.83;;;;;;;;;;5029933;28;21181;-66
2023/03/13 07:39:10;;;;;;;3.83;1.63;;;;;;;;;;5030827;28;20112;-66
2023/03/13 07:41:35;;;;;;;5.22;1.75;;;;;;;;;;5030474;28;20033;-65
2023/03/13 07:44:01;;;;;;;5.72;1.98;;;;;;;;;;5030628;28;20030;-62
2023/03/13 07:46:26;;;;;;;4.45;1.92;;;;;;;;;;5031125;28;20434;-66
2023/03/13 07:48:52;;;;;;;3.95;1.88;;;;;;;;;;5027141;28;20550;-65
2023/03/13 07:51:23;;;;;;;3.05;1.67;;;;;;;;;;5024704;28;20037;-64
2023/03/13 07:53:50;;;;;;;3.30;1.60;;;;;;;;;;5029653;28;20121;-64
2023/03/13 07:56:18;;;;;;;5.00;1.88;;;;;;;;;;5028127;28;20070;-65
2023/03/13 07:58:44;;;;;;;3.42;1.73;;;;;;;;;;5029015;28;20466;-64
2023/03/13 08:01:26;;;;;;;4.45;1.95;;;;;;;;;;5030962;28;20075;-64
2023/03/13 08:03:55;;;;;;;4.55;2.15;;;;;;;;;;5029910;28;20065;-64
2023/03/13 08:06:25;;;;;;;5.20;1.92;;;;;;;;;;5029176;28;20401;-65
2023/03/13 08:08:51;;;;;;;5.17;2.03;;;;;;;;;;5029832;28;20111;-65
2023/03/13 08:11:20;;;;;;;4.93;1.90;;;;;;;;;;5029639;28;20285;-62
2023/03/13 08:13:46;;;;;;;7.70;2.10;;;;;;;;;;5030038;28;20403;-63
2023/03/13 08:16:17;;;;;;;4.25;1.75;;;;;;;;;;5029629;28;20810;-64
2023/03/13 08:18:45;;;;;;;4.20;2.00;;;;;;;;;;5029828;28;20059;-64
2023/03/13 08:21:16;;;;;;;4.07;2.17;;;;;;;;;;5014366;28;20033;-64
2023/03/13 08:23:42;;;;;;;5.13;2.10;;;;;;;;;;5030208;28;20029;-65
2023/03/13 08:26:13;;;;;;;3.40;1.77;;;;;;;;;;5028499;28;20044;-64
2023/03/13 08:28:39;;;;;;;;;;;;;;;;;;5030472;28;20034;-63
2023/03/13 08:31:11;;;;;;;4.85;1.85;;;;;;;;;;5028797;28;19920;-64
2023/03/13 08:33:37;;;;;;;8.10;2.20;;;;;;;;;;5017104;28;20091;-65
2023/03/13 08:36:23;;;;;;;4.18;1.83;;;;;;;;;;5030241;28;20033;-64
2023/03/13 08:38:50;;;;;;;3.97;1.80;;;;;;;;;;5032195;28;20033;-65
2023/03/13 08:41:18;;;;;;;4.03;2.00;;;;;;;;;;5033418;28;20491;-63
2023/03/13 08:43:43;;;;;;;8.23;2.42;;;;;;;;;;5033739;28;20033;-65
2023/03/13 08:46:09;;;;;;;6.65;2.58;;;;;;;;;;5031824;28;20053;-66
2023/03/13 08:48:34;;;;;;;4.82;2.47;;;;;;;;;;5032159;28;20033;-63
2023/03/13 08:51:05;;;;;;;7.50;2.33;;;;;;;;;;5033365;28;20063;-63
2023/03/13 08:53:32;;;;;;;10.70;2.50;;;;;;;;;;5034301;28;20044;-62
2023/03/13 08:55:58;;;;;;;7.07;2.30;;;;;;;;;;5030939;28;20572;-64
2023/03/13 08:58:23;;;;;;;6.28;2.50;;;;;;;;;;5034012;28;20053;-61
2023/03/13 09:00:49;;;;;;;8.00;2.65;;;;;;;;;;5032597;28;20437;-64
2023/03/13 09:03:14;;;;;;;6.43;2.88;;;;;;;;;;5032794;28;20058;-64
2023/03/13 09:05:40;;;;;;;6.45;2.63;;;;;;;;;;5032464;28;20030;-65
2023/03/13 09:08:05;;;;;;;11.73;2.50;;;;;;;;;;5034294;28;20029;-66
2023/03/13 09:10:34;;;;;;;7.03;2.60;;;;;;;;;;5033687;28;20037;-65
2023/03/13 09:13:00;;;;;;;6.10;2.63;;;;;;;;;;5030448;28;20045;-65
2023/03/13 09:15:26;;;;;;;6.80;2.42;;;;;;;;;;5041285;28;20034;-64
2023/03/13 09:17:52;;;;;;;6.18;2.70;;;;;;;;;;5031111;28;20382;-64
2023/03/13 09:20:18;;;;;;;7.70;2.97;;;;;;;;;;5010504;28;20091;-63
2023/03/13 09:22:44;;;;;;;6.03;1.98;;;;;;;;;;5025646;28;20398;-65
2023/03/13 09:25:10;;;;;;;4.90;2.10;;;;;;;;;;5032596;28;20021;-65
2023/03/13 09:27:36;;;;;;;7.90;3.08;;;;;;;;;;5028557;28;20025;-64
2023/03/13 09:30:02;;;;;;;4.60;2.28;;;;;;;;;;5033381;28;20484;-66
2023/03/13 09:32:27;;;;;;;6.00;2.78;;;;;;;;;;5031322;28;20061;-65
2023/03/13 09:34:53;;;;;;;10.48;2.35;;;;;;;;;;5032913;28;20030;-64
2023/03/13 09:37:18;;;;;;;7.30;2.25;;;;;;;;;;5030228;28;20037;-64
2023/03/13 09:39:44;;;;;;;6.07;2.10;;;;;;;;;;5031385;28;20029;-64
2023/03/13 09:42:16;;;;;;;5.78;2.30;;;;;;;;;;5031507;28;20061;-64
2023/03/13 09:45:12;;;;;;;4.78;2.15;;;;;;;;;;5030544;28;20053;-62
2023/03/13 09:47:43;;;;;;;4.10;2.05;;;;;;;;;;5014522;28;21339;-66
2023/03/13 09:50:28;;;;;;;2.35;1.52;;;;;;;;;;5031868;28;20176;-63
2023/03/13 09:52:58;;;;;;;5.30;2.20;;;;;;;;;;5032121;28;20033;-64
2023/03/13 09:55:30;;;;;;;5.65;2.28;;;;;;;;;;5031885;28;20092;-61
2023/03/13 09:58:03;;;;;;;4.85;1.98;;;;;;;;;;5032164;28;20410;-61
2023/03/13 10:00:33;;;;;;;4.35;1.90;;;;;;;;;;5030579;28;20136;-64
2023/03/13 10:03:09;;;;;;;5.97;2.20;;;;;;;;;;5032241;28;20025;-65
2023/03/13 10:05:38;;;;;;;4.25;2.20;;;;;;;;;;5020979;28;20040;-63
2023/03/13 10:08:16;;;;;;;4.68;2.22;;;;;;;;;;5032014;28;20032;-63
2023/03/13 10:10:49;;;;;;;2.75;1.65;;;;;;;;;;5029289;28;20516;-64
2023/03/13 10:13:21;;;;;;;4.57;1.77;;;;;;;;;;5033107;28;20053;-64
2023/03/13 10:15:55;;;;;;;4.80;2.30;;;;;;;;;;5030050;28;20029;-63
2023/03/13 10:18:23;;;;;;;6.80;2.20;;;;;;;;;;5032949;28;20029;-64
2023/03/13 10:20:52;;;;;;;4.13;2.10;;;;;;;;;;5031398;28;20112;-64
2023/03/13 10:23:26;;;;;;;4.30;2.00;;;;;;;;;;5032829;28;20032;-65
2023/03/13 10:25:52;;;;;;;5.80;2.65;;;;;;;;;;5030603;28;20048;-64
2023/03/13 10:28:24;;;;;;;5.25;2.17;;;;;;;;;;5034453;28;20021;-65
2023/03/13 10:30:59;;;;;;;8.80;2.42;;;;;;;;;;5032262;28;20087;-62
2023/03/13 10:33:27;;;;;;;4.55;1.83;;;;;;;;;;5031535;28;20113;-66
2023/03/13 10:36:09;;;;;;;5.82;2.28;;;;;;;;;;5030199;28;20048;-65
2023/03/13 10:38:52;;;;;;;5.72;2.38;;;;;;;;;;5029797;28;20076;-64
2023/03/13 10:41:30;;;;;;;4.38;2.13;;;;;;;;;;5026081;28;20572;-63
2023/03/13 10:44:05;;;;;;;4.50;2.15;;;;;;;;;;5013321;28;20045;-63
2023/03/13 10:46:33;;;;;;;3.20;2.03;;;;;;;;;;5016372;28;20037;-64
2023/03/13 10:49:02;;;;;;;5.13;1.90;;;;;;;;;;5031153;28;20088;-63
2023/03/13 10:51:39;;;;;;;5.07;2.20;;;;;;;;;;5032316;28;20025;-63
2023/03/13 10:54:36;;;;;;;4.80;1.90;;;;;;;;;;5030236;28;20048;-63
2023/03/13 10:57:26;;;;;;;3.45;1.98;;;;;;;;;;5015662;28;20041;-64
2023/03/13 10:59:53;;;;;;;7.75;2.15;;;;;;;;;;5029917;28;20029;-62
2023/03/13 11:02:32;;;;;;;4.53;2.40;;;;;;;;;;5032454;28;20033;-63
2023/03/13 11:04:58;;;;;;;3.28;1.73;;;;;;;;;;5022495;28;20044;-64
2023/03/13 11:07:39;;;;;;;6.90;1.83;;;;;;;;;;5030665;28;20119;-66
2023/03/13 11:10:24;;;;;;;4.05;1.90;;;;;;;;;;5032477;28;20517;-64
2023/03/13 11:12:52;;;;;;;3.55;2.03;;;;;;;;;;5022155;28;20041;-64
2023/03/13 11:15:28;;;;;;;4.05;1.92;;;;;;;;;;5034933;28;20033;-64
2023/03/13 11:18:04;;;;;;;4.60;1.90;;;;;;;;;;5028855;28;20033;-64
2023/03/13 11:20:33;;;;;;;2.50;1.67;;;;;;;;;;4997405;28;20030;-64
2023/03/13 11:23:23;;;;;;;3.55;1.60;;;;;;;;;;5030749;28;20036;-64
2023/03/13 11:26:11;;;;;;;2.47;1.65;;;;;;;;;;5032097;28;20045;-64
2023/03/13 11:28:48;;;;;;;2.67;1.45;;;;;;;;;;5024676;28;20068;-62
2023/03/13 11:31:22;;;;;;;2.40;1.65;;;;;;;;;;5033647;28;20109;-64
2023/03/13 11:34:01;;;;;;;2.50;1.42;;;;;;;;;;5030675;28;20039;-61
2023/03/13 11:37:12;;;;;;;2.45;1.52;;;;;;;;;;5022045;28;20098;-61
2023/03/13 11:40:05;;;;;;;2.28;1.13;;;;;;;;;;5026904;28;20363;-61
2023/03/13 11:42:58;;;;;;;2.60;1.50;;;;;;;;;;5029815;28;20371;-62
2023/03/13 11:45:38;;;;;;;1.95;1.20;;;;;;;;;;5034635;28;20085;-62
2023/03/13 11:48:13;;;;;;;2.65;1.40;;;;;;;;;;5030300;28;20037;-65
2023/03/13 11:51:03;;;;;;;2.42;1.40;;;;;;;;;;5015941;28;20037;-64
2023/03/13 11:53:43;;;;;;;2.90;1.40;;;;;;;;;;5030245;28;20040;-63
2023/03/13 11:56:39;;;;;;;4.20;1.30;;;;;;;;;;5031545;28;20025;-63
2023/03/13 11:59:13;;;;;;;4.28;1.48;;;;;;;;;;5024559;28;20563;-63
2023/03/13 12:01:42;;;;;;;1.48;1.00;;;;;;;;;;5031000;28;20528;-62
2023/03/13 12:04:23;;;;;;;1.40;1.05;;;;;;;;;;5031079;28;20114;-62
2023/03/13 12:06:58;;;;;;;1.33;1.10;;;;;;;;;;5015052;28;20486;-65
2023/03/13 12:09:43;;;;;;;1.35;1.05;;;;;;;;;;5012113;28;20478;-64
2023/03/13 12:12:34;;;;;;;1.25;0.85;;;;;;;;;;5029599;28;20116;-62
2023/03/13 12:15:14;;;;;;;2.25;1.05;;;;;;;;;;5033514;28;20025;-63
2023/03/13 12:17:49;;;;;;;4.32;0.80;;;;;;;;;;5034102;28;20502;-64
2023/03/13 12:20:44;;;;;;;2.67;1.10;;;;;;;;;;5025456;28;20026;-64
2023/03/13 12:23:15;;;;;;;1.83;1.20;;;;;;;;;;5004899;28;20041;-63
2023/03/13 12:26:23;;;;;;;1.02;0.90;;;;;;;;;;5033835;28;20040;-61
2023/03/13 12:29:03;;;;;;;2.05;1.20;;;;;;;;;;5021925;28;20041;-63
2023/03/13 12:31:37;;;;;;;2.63;1.00;;;;;;;;;;5033177;28;20090;-64
2023/03/13 12:34:15;;;;;;;2.45;1.00;;;;;;;;;;5027699;28;20041;-65
2023/03/13 12:36:48;;;;;;;0.98;0.80;;;;;;;;;;5032985;28;20872;-64
2023/03/13 12:39:21;;;;;;;1.50;0.90;;;;;;;;;;5032757;28;20083;-61
2023/03/13 12:41:56;;;;;;;1.30;0.93;;;;;;;;;;5032433;28;20044;-64
2023/03/13 12:44:22;;;;;;;0.95;0.80;;;;;;;;;;5034183;28;20053;-62
2023/03/13 12:47:07;;;;;;;2.53;1.02;;;;;;;;;;5033408;28;20171;-62
2023/03/13 12:49:58;;;;;;;1.65;0.98;;;;;;;;;;5028219;28;20029;-62
2023/03/13 12:52:45;;;;;;;1.65;1.08;;;;;;;;;;5034363;28;20044;-64
2023/03/13 12:55:29;;;;;;;2.90;1.15;;;;;;;;;;5034034;28;20128;-62
2023/03/13 12:58:03;;;;;;;2.10;1.13;;;;;;;;;;5032570;28;20029;-63
2023/03/13 13:00:31;;;;;;;1.70;1.05;;;;;;;;;;5034537;28;20033;-63
2023/03/13 13:03:08;;;;;;;2.05;1.10;;;;;;;;;;5015126;28;20037;-63
2023/03/13 13:05:35;;;;;;;2.08;1.10;;;;;;;;;;5033351;28;20057;-62
2023/03/13 13:08:00;;;;;;;1.52;1.08;;;;;;;;;;5037802;28;20299;-64
2023/03/13 13:10:27;;;;;;;2.28;1.17;;;;;;;;;;5031377;28;20478;-62
2023/03/13 13:13:14;;;;;;;1.30;1.10;;;;;;;;;;5031895;28;20033;-63
2023/03/13 13:15:57;;;;;;;0.95;0.82;;;;;;;;;;5033050;28;20033;-62
2023/03/13 13:18:28;;;;;;;1.88;1.08;;;;;;;;;;5031450;28;20025;-62
2023/03/13 13:21:06;;;;;;;2.90;1.08;;;;;;;;;;5032569;28;20032;-64
2023/03/13 13:23:45;;;;;;;1.98;0.98;;;;;;;;;;5030104;28;20029;-64
2023/03/13 13:26:28;;;;;;;0.80;0.80;;;;;;;;;;5033225;28;20026;-63
2023/03/13 13:29:10;;;;;;;1.23;1.00;;;;;;;;;;5032602;28;20029;-62
2023/03/13 13:31:47;;;;;;;1.60;0.90;;;;;;;;;;5032632;28;20029;-64
2023/03/13 13:34:30;;;;;;;1.83;1.10;;;;;;;;;;5031102;28;20643;-64
2023/03/13 13:36:57;;;;;;;2.55;0.93;;;;;;;;;;5031957;28;20084;-61
2023/03/13 13:39:28;;;;;;;1.20;1.00;;;;;;;;;;5032496;28;20032;-64
2023/03/13 13:41:54;;;;;;;2.80;1.10;;;;;;;;;;5021714;28;20029;-63
2023/03/13 13:44:25;;;;;;;0.90;0.85;;;;;;;;;;5032974;28;20132;-63
2023/03/13 13:46:53;;;;;;;2.13;1.02;;;;;;;;;;5030560;28;20033;-62
2023/03/13 13:49:22;;;;;;;1.65;1.00;;;;;;;;;;5007524;28;20021;-64
2023/03/13 13:52:03;;;;;;;2.20;0.90;;;;;;;;;;5032905;28;20068;-62
2023/03/13 13:54:33;;;;;;;1.55;0.90;;;;;;;;;;5031483;28;20038;-63
2023/03/13 13:57:01;;;;;;;1.10;1.00;;;;;;;;;;5031074;28;20300;-63
2023/03/13 13:59:42;;;;;;;2.03;0.90;;;;;;;;;;5032479;28;20029;-64
2023/03/13 14:02:07;;;;;;;2.72;1.00;;;;;;;;;;5033102;28;20034;-64
2023/03/13 14:04:37;;;;;;;1.25;1.10;;;;;;;;;;5032242;28;20037;-63
2023/03/13 14:07:04;;;;;;;2.50;1.10;;;;;;;;;;5032423;28;20021;-64
2023/03/13 14:09:39;;;;;;;0.82;0.70;;;;;;;;;;5032314;28;20051;-64
2023/03/13 14:12:27;;;;;;;2.00;1.30;;;;;;;;;;5030915;28;20041;-61
2023/03/13 14:15:18;;;;;;;1.55;0.88;;;;;;;;;;5028579;28;20581;-62
2023/03/13 14:17:51;;;;;;;2.15;1.50;;;;;;;;;;5028567;28;20099;-63
2023/03/13 14:20:23;;;;;;;2.00;1.27;;;;;;;;;;5032857;28;20105;-63
2023/03/13 14:22:50;;;;;;;2.33;1.10;;;;;;;;;;5030321;28;20116;-64
2023/03/13 14:25:15;;;;;;;2.88;0.90;;;;;;;;;;5032471;28;20033;-63
2023/03/13 14:27:46;;;;;;;2.55;1.73;;;;;;;;;;5031740;28;20076;-63
2023/03/13 14:30:15;;;;;;;1.10;0.90;;;;;;;;;;5029138;28;20099;-61
2023/03/13 14:32:40;;;;;;;1.35;1.17;;;;;;;;;;5030421;28;20061;-62
2023/03/13 14:35:08;;;;;;;1.25;1.00;;;;;;;;;;5031294;28;20581;-61
2023/03/13 14:37:40;;;;;;;1.75;1.10;;;;;;;;;;5031588;28;20034;-62
2023/03/13 14:40:19;;;;;;;1.05;0.90;;;;;;;;;;5032259;28;20104;-61
2023/03/13 14:42:48;;;;;;;1.67;1.08;;;;;;;;;;5013875;28;20363;-63
2023/03/13 14:45:15;;;;;;;1.85;1.08;;;;;;;;;;5031634;28;20045;-61
2023/03/13 14:47:40;;;;;;;2.13;1.10;;;;;;;;;;5030780;28;20034;-62
2023/03/13 14:50:12;;;;;;;2.53;1.08;;;;;;;;;;5028919;28;20144;-63
2023/03/13 14:52:45;;;;;;;2.20;1.35;;;;;;;;;;5032218;28;20046;-62
2023/03/13 14:55:22;;;;;;;1.88;1.10;;;;;;;;;;5013803;28;20037;-62